Eutaw, North Carolina
Current Conditions -  °F | °C
As of 10:22 AM on Saturday 27 Dec 2014 (Local Time) from KPOB Reporting Station
Clear Clear  
Wind Chill: 50°   Ceiling: Unl
Heat Index: 50°   Visibility: 10mi
Dew Point: 39°   Wind: 0mph
Humidity: 66%   Direction: NA
Pressure: 30.34"   Gusts: NA
Location:  35.0916°N, 79.0106°W
Report Text: KPOB 271522Z AUTO 00000KT 10SM CLR 10/04 A3034 RMK AO2
Loading
Personal Weather Stations






























Interactive Weather Map New forecast layout! Learn more

10-Day Weather Forecast

Advertisements
Track Severe Weather on mobile